createdAt,value
2022-12-17T00:00:35.898Z,98641.66
2022-12-17T00:03:39.116Z,98652.25
2022-12-17T00:06:24.699Z,98647.94
2022-12-17T00:09:10.581Z,98648.03
2022-12-17T00:11:56.109Z,98642.91
2022-12-17T00:14:41.988Z,98637.28
2022-12-17T00:17:27.408Z,98653.34
2022-12-17T00:20:12.831Z,98655.19
2022-12-17T00:22:58.363Z,98668.38
2022-12-17T00:25:44.683Z,98677.16
2022-12-17T00:28:38.855Z,98672.13
2022-12-17T00:31:24.550Z,98668.50
2022-12-17T00:34:10.076Z,98672.00
2022-12-17T00:36:55.891Z,98665.84
2022-12-17T00:39:41.210Z,98658.75
2022-12-17T00:42:26.782Z,98667.59
2022-12-17T00:45:12.107Z,98664.16
2022-12-17T00:47:57.643Z,98665.91
2022-12-17T00:50:42.932Z,98663.25
2022-12-17T00:53:28.418Z,98670.41
2022-12-17T00:56:13.684Z,98673.91
2022-12-17T00:58:59.230Z,98679.34
2022-12-17T01:01:44.724Z,98677.53
2022-12-17T01:04:30.386Z,98683.00
2022-12-17T01:07:15.743Z,98698.13
2022-12-17T01:10:01.140Z,98700.78
2022-12-17T01:12:46.627Z,98705.97
2022-12-17T01:15:32.160Z,98708.72
2022-12-17T01:18:17.526Z,98704.88
2022-12-17T01:21:02.953Z,98704.25
2022-12-17T01:23:48.273Z,98708.63
2022-12-17T01:26:34.037Z,98722.81
2022-12-17T01:29:19.366Z,98712.09
2022-12-17T01:32:04.897Z,98715.69
2022-12-17T01:34:50.094Z,98716.31
2022-12-17T01:37:35.672Z,98711.13
2022-12-17T01:40:21.178Z,98709.34
2022-12-17T01:43:06.959Z,98709.44
2022-12-17T01:46:02.712Z,98709.44
2022-12-17T01:48:57.133Z,98718.97
2022-12-17T01:51:43.106Z,98705.97
2022-12-17T01:54:28.733Z,98701.44
2022-12-17T01:57:14.070Z,98705.09
2022-12-17T02:00:07.458Z,98703.31
2022-12-17T02:02:52.749Z,98700.47
2022-12-17T02:05:39.048Z,98703.38
2022-12-17T02:08:44.442Z,98698.06
2022-12-17T02:11:36.270Z,98692.66
2022-12-17T02:14:33.566Z,98697.81
2022-12-17T02:17:20.882Z,98712.94
2022-12-17T02:20:09.381Z,98705.88
2022-12-17T02:23:13.719Z,98705.97
2022-12-17T02:25:59.081Z,98704.09
2022-12-17T02:28:44.770Z,98693.44
2022-12-17T02:31:30.117Z,98678.38
2022-12-17T02:34:15.856Z,98676.69
2022-12-17T02:37:01.309Z,98680.34
2022-12-17T02:39:47.333Z,98688.19
2022-12-17T02:42:32.652Z,98690.06
2022-12-17T02:45:18.229Z,98710.41
2022-12-17T02:48:03.600Z,98718.47
2022-12-17T02:50:49.033Z,98731.78
2022-12-17T02:53:35.827Z,98731.16
2022-12-17T02:56:21.481Z,98731.22
2022-12-17T02:59:06.709Z,98742.13
2022-12-17T03:01:52.253Z,98760.31
2022-12-17T03:04:37.377Z,98769.41
2022-12-17T03:07:23.105Z,98774.72
2022-12-17T03:10:08.517Z,98774.84
2022-12-17T03:12:53.817Z,98779.97
2022-12-17T03:15:39.301Z,98795.88
2022-12-17T03:18:24.762Z,98801.22
2022-12-17T03:21:13.720Z,98799.34
2022-12-17T03:23:59.324Z,98813.44
2022-12-17T03:26:44.572Z,98821.22
2022-12-17T03:29:29.997Z,98840.06
2022-12-17T03:32:15.361Z,98841.88
2022-12-17T03:35:00.828Z,98827.69
2022-12-17T03:37:46.200Z,98817.03
2022-12-17T03:40:31.589Z,98817.91
2022-12-17T03:43:16.875Z,98817.91
2022-12-17T03:46:02.306Z,98825.97
2022-12-17T03:48:47.684Z,98826.69
2022-12-17T03:51:33.127Z,98816.81
2022-12-17T03:54:18.305Z,98814.28
2022-12-17T03:57:03.882Z,98818.78
2022-12-17T03:59:49.066Z,98814.38
2022-12-17T04:02:34.654Z,98804.66
2022-12-17T04:05:20.626Z,98804.16
2022-12-17T04:08:06.273Z,98808.44
2022-12-17T04:10:51.595Z,98808.38
2022-12-17T04:13:57.176Z,98812.84
2022-12-17T04:16:42.324Z,98814.00
2022-12-17T04:19:28.056Z,98816.81
2022-12-17T04:22:13.051Z,98811.03
2022-12-17T04:24:58.534Z,98813.13
2022-12-17T04:27:43.983Z,98805.38
2022-12-17T04:30:29.407Z,98805.56
2022-12-17T04:33:14.789Z,98800.78
2022-12-17T04:36:00.414Z,98811.63
2022-12-17T04:38:45.931Z,98825.72
2022-12-17T04:41:31.423Z,98820.31
2022-12-17T04:44:18.370Z,98823.06
2022-12-17T04:47:03.963Z,98827.47
2022-12-17T04:49:49.685Z,98833.56
2022-12-17T04:52:35.476Z,98827.41
2022-12-17T04:55:20.798Z,98829.25
2022-12-17T04:58:06.179Z,98842.41
2022-12-17T05:00:51.518Z,98841.75
2022-12-17T05:03:37.401Z,98871.00
2022-12-17T05:06:22.478Z,98871.06
2022-12-17T05:09:08.008Z,98858.03
2022-12-17T05:11:53.396Z,98864.16
2022-12-17T05:14:38.955Z,98877.41
2022-12-17T05:17:24.867Z,98873.00
2022-12-17T05:20:10.662Z,98862.34
2022-12-17T05:22:56.003Z,98859.81
2022-12-17T05:25:41.866Z,98874.06
2022-12-17T05:28:27.262Z,98882.72
2022-12-17T05:31:13.341Z,98883.56
2022-12-17T05:33:58.732Z,98891.63
2022-12-17T05:36:44.159Z,98903.06
2022-12-17T05:39:29.478Z,98905.59
2022-12-17T05:42:15.313Z,98896.03
2022-12-17T05:45:00.862Z,98904.88
2022-12-17T05:47:46.306Z,98911.88
2022-12-17T05:50:31.688Z,98921.78
2022-12-17T05:53:21.595Z,98933.25
2022-12-17T05:56:10.470Z,98941.44
2022-12-17T05:58:56.778Z,98957.41
2022-12-17T06:01:42.033Z,98977.56
2022-12-17T06:04:28.543Z,98975.78
2022-12-17T06:07:13.980Z,98972.38
2022-12-17T06:09:59.462Z,98959.94
2022-12-17T06:12:44.873Z,98969.63
2022-12-17T06:15:30.515Z,98971.44
2022-12-17T06:18:17.224Z,98968.00
2022-12-17T06:21:03.649Z,98979.63
2022-12-17T06:23:48.854Z,98977.63
2022-12-17T06:26:34.545Z,98984.69
2022-12-17T06:29:20.040Z,98991.78
2022-12-17T06:32:05.352Z,98988.09
2022-12-17T06:34:50.786Z,98990.88
2022-12-17T06:37:36.263Z,98992.94
2022-12-17T06:40:21.547Z,98993.13
2022-12-17T06:43:13.570Z,98995.06
2022-12-17T06:45:59.000Z,98995.72
2022-12-17T06:48:44.717Z,99002.78
2022-12-17T06:51:30.105Z,99013.25
2022-12-17T06:54:15.535Z,99021.06
2022-12-17T06:57:00.889Z,99023.56
2022-12-17T06:59:46.670Z,99029.84
2022-12-17T07:02:32.197Z,99048.47
2022-12-17T07:05:17.897Z,99044.00
2022-12-17T07:08:03.144Z,99057.34
2022-12-17T07:10:48.572Z,99046.75
2022-12-17T07:13:34.068Z,99049.28
2022-12-17T07:16:19.655Z,99053.88
2022-12-17T07:19:05.124Z,99069.06
2022-12-17T07:21:50.526Z,99065.56
2022-12-17T07:24:35.787Z,99064.53
2022-12-17T07:27:21.092Z,99071.84
2022-12-17T07:30:06.484Z,99077.28
2022-12-17T07:32:52.024Z,99080.75
2022-12-17T07:35:37.769Z,99078.75
2022-12-17T07:38:23.343Z,99090.53
2022-12-17T07:41:16.277Z,99092.97
2022-12-17T07:44:01.599Z,99110.09
2022-12-17T07:46:46.992Z,99108.09
2022-12-17T07:49:32.604Z,99111.50
2022-12-17T07:52:17.934Z,99118.75
2022-12-17T07:55:03.586Z,99119.59
2022-12-17T07:57:48.953Z,99117.78
2022-12-17T08:00:34.610Z,99114.16
2022-12-17T08:03:20.099Z,99110.03
2022-12-17T08:06:05.826Z,99118.13
2022-12-17T08:08:51.158Z,99126.06
2022-12-17T08:11:36.817Z,99125.09
2022-12-17T08:14:22.234Z,99125.16
2022-12-17T08:17:07.646Z,99131.28
2022-12-17T08:19:52.629Z,99139.50
2022-12-17T08:22:38.348Z,99139.56
2022-12-17T08:25:25.625Z,99149.34
2022-12-17T08:28:48.598Z,99145.03
2022-12-17T08:31:23.219Z,99141.47
2022-12-17T08:34:08.905Z,99138.75
2022-12-17T08:36:54.213Z,99144.13
2022-12-17T08:39:39.846Z,99134.50
2022-12-17T08:42:25.241Z,99140.38
2022-12-17T08:45:10.549Z,99144.81
2022-12-17T08:47:59.199Z,99146.69
2022-12-17T08:50:49.301Z,99146.75
2022-12-17T08:53:35.146Z,99153.69
2022-12-17T08:56:21.084Z,99166.94
2022-12-17T08:59:06.303Z,99169.56
2022-12-17T09:01:51.791Z,99170.34
2022-12-17T09:04:37.136Z,99173.03
2022-12-17T09:07:22.744Z,99176.66
2022-12-17T09:10:08.013Z,99176.53
2022-12-17T09:12:53.965Z,99177.47
2022-12-17T09:15:39.119Z,99187.31
2022-12-17T09:18:24.453Z,99184.47
2022-12-17T09:21:13.451Z,99187.19
2022-12-17T09:23:58.950Z,99198.97
2022-12-17T09:26:44.349Z,99188.94
2022-12-17T09:29:29.894Z,99202.41
2022-12-17T09:32:15.206Z,99201.31
2022-12-17T09:35:00.629Z,99211.28
2022-12-17T09:37:45.931Z,99212.22
2022-12-17T09:40:34.958Z,99207.69
2022-12-17T09:44:00.014Z,99221.91
2022-12-17T09:46:53.290Z,99231.81
2022-12-17T09:49:43.650Z,99231.06
2022-12-17T09:52:44.153Z,99225.81
2022-12-17T09:55:52.372Z,99218.88
2022-12-17T09:58:39.700Z,99227.72
2022-12-17T10:01:28.529Z,99224.06
2022-12-17T10:04:14.407Z,99228.38
2022-12-17T10:06:59.627Z,99221.22
2022-12-17T10:09:45.110Z,99220.59
2022-12-17T10:12:35.948Z,99220.75
2022-12-17T10:15:21.625Z,99234.75
2022-12-17T10:18:07.098Z,99234.75
2022-12-17T10:21:00.749Z,99235.72
2022-12-17T10:23:47.833Z,99234.53
2022-12-17T10:26:37.622Z,99239.06
2022-12-17T10:29:25.009Z,99237.31
2022-12-17T10:32:10.727Z,99246.31
2022-12-17T10:34:59.277Z,99251.78
2022-12-17T10:37:49.331Z,99247.16
2022-12-17T10:40:52.947Z,99251.53
2022-12-17T10:43:47.853Z,99252.66
2022-12-17T10:46:44.925Z,99264.13
2022-12-17T10:49:38.396Z,99255.31
2022-12-17T10:52:47.965Z,99263.31
2022-12-17T10:55:47.439Z,99274.91
2022-12-17T10:58:34.806Z,99278.63
2022-12-17T11:01:21.030Z,99275.88
2022-12-17T11:04:16.994Z,99274.84
2022-12-17T11:07:07.878Z,99273.91
2022-12-17T11:10:08.995Z,99282.19
2022-12-17T11:13:01.133Z,99278.53
2022-12-17T11:16:11.093Z,99280.16
2022-12-17T11:19:09.205Z,99275.06
2022-12-17T11:22:06.352Z,99284.00
2022-12-17T11:25:02.244Z,99275.91
2022-12-17T11:27:54.129Z,99285.75
2022-12-17T11:30:39.808Z,99288.22
2022-12-17T11:33:37.938Z,99298.66
2022-12-17T11:36:35.164Z,99301.47
2022-12-17T11:40:02.180Z,99306.66
2022-12-17T11:42:51.687Z,99305.91
2022-12-17T11:45:56.192Z,99310.47
2022-12-17T11:48:46.827Z,99326.22
2022-12-17T11:51:58.381Z,99320.91
2022-12-17T11:55:07.489Z,99325.41
2022-12-17T11:58:00.774Z,99329.69
2022-12-17T12:00:46.508Z,99330.56
2022-12-17T12:03:53.784Z,99337.84
2022-12-17T12:06:46.944Z,99335.19
2022-12-17T12:09:44.591Z,99338.69
2022-12-17T12:12:55.704Z,99334.22
2022-12-17T12:15:44.330Z,99340.53
2022-12-17T12:18:43.226Z,99348.75
2022-12-17T12:21:34.870Z,99346.16
2022-12-17T12:24:39.072Z,99346.47
2022-12-17T12:27:32.098Z,99358.88
2022-12-17T12:30:54.988Z,99363.34
2022-12-17T12:33:47.172Z,99376.75
2022-12-17T12:36:34.390Z,99359.03
2022-12-17T12:39:19.735Z,99371.47
2022-12-17T12:42:18.779Z,99374.16
2022-12-17T12:45:18.875Z,99377.72
2022-12-17T12:48:29.127Z,99384.00
2022-12-17T12:51:22.178Z,99390.94
2022-12-17T12:54:17.614Z,99391.84
2022-12-17T12:57:02.943Z,99392.69
2022-12-17T12:59:49.658Z,99393.59
2022-12-17T13:02:50.679Z,99404.19
2022-12-17T13:05:34.083Z,99398.91
2022-12-17T13:08:05.628Z,99401.56
2022-12-17T13:10:33.136Z,99407.75
2022-12-17T13:13:14.972Z,99403.31
2022-12-17T13:15:46.073Z,99410.41
2022-12-17T13:18:40.357Z,99412.38
2022-12-17T13:21:16.670Z,99422.78
2022-12-17T13:23:43.637Z,99423.28
2022-12-17T13:26:14.823Z,99428.56
2022-12-17T13:28:41.623Z,99436.41
2022-12-17T13:31:20.635Z,99440.22
2022-12-17T13:34:16.020Z,99447.53
2022-12-17T13:36:57.859Z,99446.03
2022-12-17T13:39:41.916Z,99448.88
2022-12-17T13:42:28.696Z,99463.09
2022-12-17T13:44:55.456Z,99466.75
2022-12-17T13:47:27.895Z,99464.06
2022-12-17T13:50:31.757Z,99463.94
2022-12-17T13:52:43.055Z,99463.84
2022-12-17T13:55:16.763Z,99470.94
2022-12-17T13:57:47.539Z,99465.63
2022-12-17T14:00:26.348Z,99469.31
2022-12-17T14:02:53.733Z,99478.03
2022-12-17T14:05:30.403Z,99483.25
2022-12-17T14:07:58.743Z,99485.16
2022-12-17T14:10:25.476Z,99494.84
2022-12-17T14:13:08.381Z,99505.72
2022-12-17T14:15:35.120Z,99505.38
2022-12-17T14:18:02.373Z,99501.31
2022-12-17T14:20:30.582Z,99509.44
2022-12-17T14:23:22.183Z,99521.25
2022-12-17T14:25:49.235Z,99516.88
2022-12-17T14:28:24.585Z,99524.81
2022-12-17T14:31:24.796Z,99523.72
2022-12-17T14:33:38.896Z,99532.56
2022-12-17T14:36:07.750Z,99525.53
2022-12-17T14:38:39.179Z,99527.03
2022-12-17T14:41:31.582Z,99533.03
2022-12-17T14:43:59.378Z,99536.75
2022-12-17T14:46:26.308Z,99552.06
2022-12-17T14:49:03.591Z,99553.72
2022-12-17T14:51:36.390Z,99560.75
2022-12-17T14:54:25.943Z,99561.19
2022-12-17T14:56:56.011Z,99565.75
2022-12-17T14:59:33.056Z,99568.41
2022-12-17T15:02:10.566Z,99572.78
2022-12-17T15:04:38.076Z,99575.63
2022-12-17T15:07:05.957Z,99578.16
2022-12-17T15:09:39.139Z,99587.19
2022-12-17T15:12:06.054Z,99583.69
2022-12-17T15:14:33.070Z,99586.31
2022-12-17T15:17:01.652Z,99591.59
2022-12-17T15:19:28.746Z,99591.91
2022-12-17T15:21:55.600Z,99596.47
2022-12-17T15:24:22.706Z,99603.72
2022-12-17T15:26:49.953Z,99604.56
2022-12-17T15:29:17.031Z,99606.34
2022-12-17T15:31:43.873Z,99610.56
2022-12-17T15:34:11.713Z,99607.06
2022-12-17T15:36:38.520Z,99617.69
2022-12-17T15:39:07.080Z,99621.09
2022-12-17T15:41:52.754Z,99622.00
2022-12-17T15:44:19.958Z,99629.00
2022-12-17T15:46:46.691Z,99632.41
2022-12-17T15:49:13.834Z,99643.00
2022-12-17T15:51:40.577Z,99637.59
2022-12-17T15:54:07.585Z,99636.63
2022-12-17T15:56:34.950Z,99644.44
2022-12-17T15:59:02.007Z,99645.56
2022-12-17T16:01:28.969Z,99657.13
2022-12-17T16:03:56.264Z,99658.03
2022-12-17T16:06:23.068Z,99665.16
2022-12-17T16:08:50.135Z,99669.72
2022-12-17T16:11:17.018Z,99675.81
2022-12-17T16:13:44.127Z,99669.72
2022-12-17T16:16:10.973Z,99666.97
2022-12-17T16:18:41.192Z,99673.16
2022-12-17T16:21:08.530Z,99673.22
2022-12-17T16:23:35.818Z,99679.41
2022-12-17T16:26:03.602Z,99680.34
2022-12-17T16:28:30.920Z,99682.06
2022-12-17T16:31:01.826Z,99684.84
2022-12-17T16:33:35.746Z,99689.28
2022-12-17T16:36:03.308Z,99695.50
2022-12-17T16:38:30.423Z,99676.91
2022-12-17T16:40:58.066Z,99701.75
2022-12-17T16:43:25.541Z,99701.69
2022-12-17T16:45:52.735Z,99704.34
2022-12-17T16:48:21.059Z,99703.50
2022-12-17T16:50:48.219Z,99701.69
2022-12-17T16:53:15.434Z,99714.06
2022-12-17T16:55:43.184Z,99716.63
2022-12-17T16:58:10.281Z,99718.44
2022-12-17T17:00:37.221Z,99729.22
2022-12-17T17:03:05.321Z,99733.59
2022-12-17T17:05:33.125Z,99725.66
2022-12-17T17:08:00.309Z,99731.06
2022-12-17T17:10:27.373Z,99735.53
2022-12-17T17:12:54.913Z,99737.31
2022-12-17T17:15:22.501Z,99735.50
2022-12-17T17:17:55.541Z,99734.56
2022-12-17T17:20:23.220Z,99742.56
2022-12-17T17:22:50.296Z,99743.50
2022-12-17T17:25:17.108Z,99741.81
2022-12-17T17:27:44.661Z,99735.59
2022-12-17T17:30:11.888Z,99743.59
2022-12-17T17:32:39.254Z,99750.66
2022-12-17T17:35:06.411Z,99761.31
2022-12-17T17:37:33.428Z,99768.53
2022-12-17T17:40:00.216Z,99762.31
2022-12-17T17:42:27.256Z,99773.09
2022-12-17T17:44:54.051Z,99778.41
2022-12-17T17:47:21.148Z,99779.28
2022-12-17T17:49:47.927Z,99782.78
2022-12-17T17:52:14.975Z,99790.88
2022-12-17T17:54:41.950Z,99801.47
2022-12-17T17:57:09.308Z,99804.31
2022-12-17T17:59:36.754Z,99812.19
2022-12-17T18:02:04.600Z,99820.22
2022-12-17T18:04:31.640Z,99819.34
2022-12-17T18:09:45.478Z,99831.69
2022-12-17T18:12:30.914Z,99840.66
2022-12-17T18:15:13.821Z,99836.25
2022-12-17T18:17:42.681Z,99839.72
2022-12-17T18:20:10.246Z,99836.31
2022-12-17T18:22:37.491Z,99845.13
2022-12-17T18:25:04.979Z,99846.06
2022-12-17T18:27:32.258Z,99844.28
2022-12-17T18:29:59.000Z,99847.09
2022-12-17T18:32:26.065Z,99855.81
2022-12-17T18:34:52.903Z,99859.66
2022-12-17T18:37:20.017Z,99868.72
2022-12-17T18:39:47.406Z,99874.66
2022-12-17T18:42:32.976Z,99868.38
2022-12-17T18:44:59.860Z,99876.56
2022-12-17T18:47:27.110Z,99875.63
2022-12-17T18:49:53.876Z,99875.97
2022-12-17T18:52:22.700Z,99878.44
2022-12-17T18:54:49.889Z,99872.84
2022-12-17T18:57:17.016Z,99885.34
2022-12-17T18:59:44.008Z,99885.41
2022-12-17T19:02:12.411Z,99893.44
2022-12-17T19:04:39.279Z,99900.34
2022-12-17T19:07:06.445Z,99898.81
2022-12-17T19:09:36.684Z,99902.34
2022-12-17T19:12:07.793Z,99909.44
2022-12-17T19:14:34.835Z,99911.97
2022-12-17T19:17:02.020Z,99915.59
2022-12-17T19:19:28.834Z,99921.91
2022-12-17T19:21:56.154Z,99924.69
2022-12-17T19:24:23.002Z,99929.84
2022-12-17T19:26:50.276Z,99929.84
2022-12-17T19:29:17.222Z,99938.59
2022-12-17T19:31:44.594Z,99934.78
2022-12-17T19:34:12.770Z,99943.75
2022-12-17T19:36:40.121Z,99944.84
2022-12-17T19:39:08.185Z,99945.53
2022-12-17T19:41:35.288Z,99947.31
2022-12-17T19:44:03.633Z,99944.50
2022-12-17T19:46:31.540Z,99954.31
2022-12-17T19:48:58.377Z,99956.03
2022-12-17T19:51:27.171Z,99955.06
2022-12-17T19:53:54.270Z,99972.00
2022-12-17T19:56:26.096Z,99968.50
2022-12-17T19:58:55.273Z,99968.47
2022-12-17T20:01:24.732Z,99977.28
2022-12-17T20:03:51.672Z,99983.59
2022-12-17T20:06:19.664Z,99994.25
2022-12-17T20:08:46.428Z,99991.50
2022-12-17T20:11:32.563Z,99993.31
2022-12-17T20:13:59.180Z,99995.91
2022-12-17T20:16:27.120Z,99997.72
2022-12-17T20:18:53.994Z,100008.38
2022-12-17T20:21:21.035Z,100013.66
2022-12-17T20:23:48.667Z,100006.50
2022-12-17T20:26:16.215Z,100008.31
2022-12-17T20:28:43.077Z,100018.91
2022-12-17T20:31:10.258Z,100026.06
2022-12-17T20:33:37.014Z,100023.41
2022-12-17T20:36:08.970Z,100021.53
2022-12-17T20:38:36.226Z,100019.78
2022-12-17T20:41:14.355Z,100024.25
2022-12-17T20:43:41.254Z,100030.47
2022-12-17T20:46:09.628Z,100029.59
2022-12-17T20:48:37.780Z,100035.81
2022-12-17T20:51:16.288Z,100038.34
2022-12-17T20:53:43.143Z,100038.41
2022-12-17T20:56:12.320Z,100041.94
2022-12-17T20:58:39.709Z,100043.72
2022-12-17T21:01:18.825Z,100046.31
2022-12-17T21:03:46.030Z,100050.75
2022-12-17T21:06:16.859Z,100059.75
2022-12-17T21:08:49.397Z,100054.47
2022-12-17T21:11:21.690Z,100059.78
2022-12-17T21:13:48.596Z,100067.81
2022-12-17T21:16:17.863Z,100067.84
2022-12-17T21:18:44.671Z,100065.16
2022-12-17T21:21:18.174Z,100068.63
2022-12-17T21:23:46.384Z,100071.22
2022-12-17T21:26:15.149Z,100068.53
2022-12-17T21:28:43.075Z,100080.91
2022-12-17T21:31:27.049Z,100081.84
2022-12-17T21:33:56.638Z,100083.56
2022-12-17T21:36:24.798Z,100090.66
2022-12-17T21:38:51.641Z,100099.50
2022-12-17T21:41:23.320Z,100103.06
2022-12-17T21:44:00.649Z,100109.22
2022-12-17T21:46:28.361Z,100115.44
2022-12-17T21:48:56.542Z,100119.91
2022-12-17T21:51:23.645Z,100118.09
2022-12-17T21:53:55.073Z,100114.56
2022-12-17T21:56:22.315Z,100113.72
2022-12-17T21:58:49.727Z,100118.91
2022-12-17T22:01:18.994Z,100116.22
2022-12-17T22:03:48.389Z,100126.03
2022-12-17T22:06:23.566Z,100117.16
2022-12-17T22:08:53.840Z,100115.28
2022-12-17T22:11:25.138Z,100118.91
2022-12-17T22:14:13.813Z,100121.53
2022-12-17T22:16:47.269Z,100132.25
2022-12-17T22:19:20.912Z,100124.25
2022-12-17T22:21:50.939Z,100131.41
2022-12-17T22:24:21.992Z,100144.72
2022-12-17T22:26:49.101Z,100141.09
2022-12-17T22:29:34.504Z,100136.59
2022-12-17T22:32:20.284Z,100149.06
2022-12-17T22:35:12.596Z,100140.16
2022-12-17T22:39:31.474Z,100134.81
2022-12-17T22:44:06.734Z,100141.00
2022-12-17T22:44:45.552Z,100143.63
2022-12-17T22:46:16.577Z,100142.78
2022-12-17T22:48:43.721Z,100155.22
2022-12-17T22:51:12.767Z,100150.75
2022-12-17T22:53:42.197Z,100159.63
2022-12-17T22:56:18.506Z,100169.38
2022-12-17T22:58:56.740Z,100167.56
2022-12-17T23:01:23.881Z,100172.84
2022-12-17T23:03:57.331Z,100172.03
2022-12-17T23:06:24.242Z,100173.75
2022-12-17T23:08:51.464Z,100179.13
2022-12-17T23:11:23.102Z,100176.47
2022-12-17T23:13:50.545Z,100188.06
2022-12-17T23:16:17.357Z,100186.25
2022-12-17T23:18:47.880Z,100196.88
2022-12-17T23:21:16.624Z,100195.13
2022-12-17T23:23:43.752Z,100196.81
2022-12-17T23:26:18.747Z,100194.16
2022-12-17T23:28:45.751Z,100201.22
2022-12-17T23:31:14.354Z,100203.94
2022-12-17T23:33:41.908Z,100201.22
2022-12-17T23:36:11.638Z,100195.03
2022-12-17T23:38:38.955Z,100202.94
2022-12-17T23:41:13.615Z,100209.28
2022-12-17T23:43:41.031Z,100210.06
2022-12-17T23:46:08.674Z,100213.66
2022-12-17T23:48:40.748Z,100218.13
2022-12-17T23:51:11.778Z,100213.66
2022-12-17T23:53:39.275Z,100220.69
2022-12-17T23:56:15.499Z,100221.53
2022-12-17T23:58:43.047Z,100228.66
